createdAt,value
2019-05-06T03:47:54.081Z,61.60
2019-05-06T03:50:20.529Z,61.60
2019-05-06T03:52:56.119Z,62.40
2019-05-06T03:55:23.290Z,62.70
2019-05-06T03:57:58.772Z,63.70
2019-05-06T04:00:26.765Z,64.70
2019-05-06T04:02:54.819Z,64.70
2019-05-06T04:05:23.788Z,64.60
2019-05-06T04:07:53.157Z,64.20
2019-05-06T04:10:22.874Z,64.00
2019-05-06T04:12:53.632Z,64.20
2019-05-06T04:15:23.007Z,64.00
2019-05-06T04:17:54.308Z,64.30
2019-05-06T04:20:27.067Z,64.40
2019-05-06T04:22:57.534Z,64.50
2019-05-06T04:25:39.230Z,64.80
2019-05-06T04:28:12.918Z,65.10
2019-05-06T04:30:42.923Z,65.40
2019-05-06T04:33:16.887Z,65.60
2019-05-06T04:35:43.040Z,65.60
2019-05-06T04:38:13.645Z,65.60
2019-05-06T04:40:43.676Z,65.20
2019-05-06T04:43:13.409Z,64.70
2019-05-06T04:45:43.239Z,63.90
2019-05-06T04:48:14.308Z,63.00
2019-05-06T04:50:44.414Z,61.30
2019-05-06T04:53:13.674Z,59.80
2019-05-06T04:55:44.117Z,60.30
2019-05-06T04:58:13.582Z,60.80
2019-05-06T05:00:44.521Z,61.30
2019-05-06T05:03:14.057Z,61.90
2019-05-06T05:05:41.273Z,61.60
2019-05-06T05:08:09.262Z,62.00
2019-05-06T05:10:38.899Z,62.00
2019-05-06T05:13:08.628Z,60.40
2019-05-06T05:15:47.092Z,60.90
2019-05-06T05:18:32.966Z,60.10
2019-05-06T05:21:02.412Z,60.20
2019-05-06T05:23:31.898Z,59.90
2019-05-06T05:26:00.085Z,60.10
2019-05-06T05:28:28.168Z,60.80
2019-05-06T05:30:56.177Z,60.60
2019-05-06T05:33:24.219Z,60.00
2019-05-06T05:35:52.662Z,59.80
2019-05-06T05:38:22.730Z,60.00
2019-05-06T05:40:52.368Z,60.20
2019-05-06T05:43:22.817Z,60.70
2019-05-06T05:45:52.349Z,60.90
2019-05-06T05:48:23.363Z,59.80
2019-05-06T05:50:52.491Z,59.70
2019-05-06T05:53:22.504Z,60.00
2019-05-06T05:55:52.624Z,59.90
2019-05-06T05:58:20.095Z,59.70
2019-05-06T06:01:07.413Z,59.20
2019-05-06T06:03:35.395Z,58.90
2019-05-06T06:06:03.732Z,58.00
2019-05-06T06:08:32.222Z,57.60
2019-05-06T06:11:04.137Z,57.70
2019-05-06T06:13:32.054Z,58.00
2019-05-06T06:16:02.840Z,57.70
2019-05-06T06:18:49.347Z,57.70
2019-05-06T06:21:28.347Z,58.20
2019-05-06T06:24:02.735Z,58.20
2019-05-06T06:26:32.450Z,58.30
2019-05-06T06:29:00.373Z,57.20
2019-05-06T06:31:35.865Z,56.60
2019-05-06T06:34:08.184Z,57.10
2019-05-06T06:36:43.305Z,57.00
2019-05-06T06:39:15.869Z,55.90
2019-05-06T06:41:43.855Z,56.50
2019-05-06T06:44:16.242Z,56.30
2019-05-06T06:46:44.764Z,56.30
2019-05-06T06:49:12.880Z,56.40
2019-05-06T06:51:42.475Z,55.60
2019-05-06T06:54:12.356Z,56.20
2019-05-06T06:57:05.087Z,57.30
2019-05-06T06:59:31.897Z,56.90
2019-05-06T07:02:18.312Z,53.90
2019-05-06T07:04:52.594Z,55.20
2019-05-06T07:07:22.803Z,56.30
2019-05-06T07:09:52.630Z,54.70
2019-05-06T07:12:23.237Z,54.30
2019-05-06T07:14:52.378Z,54.50
2019-05-06T07:17:22.708Z,53.90
2019-05-06T07:19:57.493Z,53.30
2019-05-06T07:22:27.129Z,52.40
2019-05-06T07:24:55.125Z,51.70
2019-05-06T07:27:24.767Z,51.90
2019-05-06T07:29:52.770Z,51.80
2019-05-06T07:32:23.220Z,50.70
2019-05-06T07:34:53.037Z,51.00
2019-05-06T07:37:22.115Z,50.70
2019-05-06T07:39:52.680Z,49.60
2019-05-06T07:42:22.697Z,50.70
2019-05-06T07:44:58.274Z,50.90
2019-05-06T07:50:13.109Z,51.30
2019-05-06T07:52:42.669Z,50.20
2019-05-06T07:55:12.016Z,49.40
2019-05-06T07:57:42.302Z,49.50
2019-05-06T08:00:12.409Z,49.00
2019-05-06T08:02:39.650Z,48.30
2019-05-06T08:05:07.790Z,49.50
2019-05-06T08:07:35.875Z,47.80
2019-05-06T08:10:05.323Z,47.10
2019-05-06T08:12:33.330Z,47.80
2019-05-06T08:15:04.919Z,48.50
2019-05-06T08:17:33.182Z,49.30
2019-05-06T08:20:22.205Z,47.40
2019-05-06T08:23:04.228Z,47.00
2019-05-06T08:25:39.352Z,45.90
2019-05-06T08:28:07.349Z,45.10
2019-05-06T08:30:35.443Z,45.30
2019-05-06T08:33:03.736Z,44.90
2019-05-06T08:35:33.158Z,44.90
2019-05-06T08:38:02.375Z,46.50
2019-05-06T08:40:32.158Z,45.40
2019-05-06T08:43:02.213Z,45.50
2019-05-06T08:45:32.370Z,45.20
2019-05-06T08:47:59.954Z,43.90
2019-05-06T08:50:35.477Z,42.80
2019-05-06T08:53:14.075Z,43.00
2019-05-06T08:55:46.665Z,43.50
2019-05-06T08:58:14.704Z,44.70
2019-05-06T09:00:50.572Z,43.30
2019-05-06T09:03:18.797Z,43.30
2019-05-06T09:05:55.689Z,42.00
2019-05-06T09:08:24.407Z,43.40
2019-05-06T09:10:52.730Z,43.10
2019-05-06T09:13:23.017Z,42.20
2019-05-06T09:15:52.483Z,44.40
2019-05-06T09:18:20.204Z,44.30
2019-05-06T09:20:48.185Z,44.80
2019-05-06T09:23:16.227Z,43.30
2019-05-06T09:25:44.200Z,43.20
2019-05-06T09:28:25.916Z,43.50
2019-05-06T09:30:55.537Z,42.00
2019-05-06T09:33:25.174Z,42.40
2019-05-06T09:35:53.157Z,42.50
2019-05-06T09:38:22.819Z,43.10
2019-05-06T09:40:52.517Z,42.60
2019-05-06T09:43:22.262Z,43.50
2019-05-06T09:45:52.822Z,43.10
2019-05-06T09:48:33.026Z,43.00
2019-05-06T09:51:02.942Z,43.60
2019-05-06T09:53:37.713Z,43.30
2019-05-06T09:56:16.106Z,42.00
2019-05-06T09:58:44.987Z,42.60
2019-05-06T10:01:13.626Z,42.50
2019-05-06T10:03:42.612Z,43.00
2019-05-06T10:06:13.027Z,48.30
2019-05-06T10:08:40.602Z,52.40
2019-05-06T10:11:08.596Z,54.00
2019-05-06T10:13:36.659Z,57.00
2019-05-06T10:16:04.773Z,58.40
2019-05-06T10:18:32.941Z,59.10
2019-05-06T10:21:00.934Z,58.90
2019-05-06T10:23:28.923Z,60.90
2019-05-06T10:25:56.897Z,60.10
2019-05-06T10:28:38.743Z,60.20
2019-05-06T10:31:08.363Z,59.00
2019-05-06T10:33:38.018Z,59.90
2019-05-06T10:36:06.070Z,59.40
2019-05-06T10:38:35.677Z,60.10
2019-05-06T10:41:07.737Z,59.80
2019-05-06T10:43:39.175Z,57.70
2019-05-06T10:46:07.185Z,55.50
2019-05-06T10:48:35.188Z,54.90
2019-05-06T10:51:04.818Z,54.10
2019-05-06T10:53:33.038Z,53.70
2019-05-06T10:56:05.221Z,53.50
2019-05-06T10:58:33.214Z,53.10
2019-05-06T11:01:03.648Z,52.10
2019-05-06T11:03:33.035Z,51.30
2019-05-06T11:06:02.585Z,50.40
2019-05-06T11:08:32.469Z,49.60
2019-05-06T11:11:14.494Z,49.60
2019-05-06T11:13:32.143Z,48.80
2019-05-06T11:15:59.882Z,48.40
2019-05-06T11:18:27.875Z,47.90
2019-05-06T11:20:56.189Z,47.60
2019-05-06T11:23:24.540Z,47.80
2019-05-06T11:25:52.826Z,46.50
2019-05-06T11:28:38.839Z,46.30
2019-05-06T11:31:09.382Z,46.60
2019-05-06T11:33:55.857Z,46.10
2019-05-06T11:36:25.494Z,45.60
2019-05-06T11:38:53.591Z,45.60
2019-05-06T11:41:23.349Z,47.00
2019-05-06T11:43:52.198Z,47.50
2019-05-06T11:46:22.721Z,46.10
2019-05-06T11:48:52.117Z,44.30
2019-05-06T11:51:23.073Z,45.40
2019-05-06T11:53:53.836Z,46.00
2019-05-06T11:56:22.913Z,45.10
2019-05-06T11:58:54.992Z,45.70
2019-05-06T12:01:27.589Z,46.60
2019-05-06T12:03:55.672Z,47.00
2019-05-06T12:06:23.712Z,47.30
2019-05-06T12:08:52.441Z,48.10
2019-05-06T12:11:23.387Z,49.00
2019-05-06T12:13:53.122Z,49.60
2019-05-06T12:16:25.574Z,47.20
2019-05-06T12:18:50.144Z,47.60
2019-05-06T12:21:19.342Z,47.30
2019-05-06T12:23:47.716Z,44.30
2019-05-06T12:26:15.724Z,45.30
2019-05-06T12:28:43.801Z,45.20
2019-05-06T12:31:12.670Z,46.30
2019-05-06T12:33:42.781Z,47.70
2019-05-06T12:36:13.374Z,48.90
2019-05-06T12:38:59.323Z,49.80
2019-05-06T12:41:27.493Z,50.60
2019-05-06T12:43:55.854Z,49.70
2019-05-06T12:46:25.521Z,50.00
2019-05-06T12:48:53.566Z,48.40
2019-05-06T12:51:22.702Z,48.00
2019-05-06T12:53:52.827Z,47.50
2019-05-06T12:56:20.527Z,46.70
2019-05-06T12:58:48.528Z,46.10
2019-05-06T13:01:16.694Z,43.60
2019-05-06T13:03:44.682Z,42.60
2019-05-06T13:06:13.079Z,43.20
2019-05-06T13:08:56.661Z,43.30
2019-05-06T13:11:12.963Z,44.40
2019-05-06T13:13:56.139Z,43.30
2019-05-06T13:16:12.543Z,43.00
2019-05-06T13:18:40.417Z,42.60
2019-05-06T13:21:08.473Z,42.60
2019-05-06T13:23:41.069Z,43.20
2019-05-06T13:26:09.221Z,42.80
2019-05-06T13:28:38.836Z,43.30
2019-05-06T13:31:17.215Z,43.40
2019-05-06T13:33:38.486Z,43.10
2019-05-06T13:36:06.638Z,43.60
2019-05-06T13:38:34.628Z,43.60
2019-05-06T13:41:03.263Z,44.30
2019-05-06T13:43:39.095Z,44.80
2019-05-06T13:46:09.784Z,42.40
2019-05-06T13:48:39.483Z,41.90
2019-05-06T13:51:14.974Z,42.50
2019-05-06T13:53:46.083Z,42.50
2019-05-06T13:56:12.773Z,42.80
2019-05-06T13:58:42.951Z,43.00
2019-05-06T14:01:12.201Z,43.50
2019-05-06T14:03:40.224Z,43.60
2019-05-06T14:06:08.217Z,43.50
2019-05-06T14:08:36.286Z,43.70
2019-05-06T14:11:04.355Z,43.10
2019-05-06T14:13:32.831Z,43.60
2019-05-06T14:16:03.757Z,47.60
2019-05-06T14:18:33.050Z,51.00
2019-05-06T14:21:02.710Z,51.80
2019-05-06T14:23:30.112Z,51.30
2019-05-06T14:26:17.647Z,51.50
2019-05-06T14:28:50.004Z,51.10
2019-05-06T14:31:19.627Z,50.20
2019-05-06T14:33:47.630Z,50.40
2019-05-06T14:36:15.642Z,51.00
2019-05-06T14:38:43.633Z,50.90
2019-05-06T14:41:13.364Z,49.40
2019-05-06T14:43:42.870Z,49.50
2019-05-06T14:46:11.164Z,48.00
2019-05-06T14:48:39.273Z,48.40
2019-05-06T14:51:07.338Z,48.10
2019-05-06T14:53:35.400Z,48.00
2019-05-06T14:56:07.820Z,47.00
2019-05-06T14:58:35.851Z,47.80
2019-05-06T15:01:04.408Z,45.90
2019-05-06T15:03:32.686Z,45.80
2019-05-06T15:06:02.618Z,44.90
2019-05-06T15:08:32.205Z,42.90
2019-05-06T15:11:02.911Z,42.90
2019-05-06T15:13:32.163Z,43.30
2019-05-06T15:16:03.230Z,43.30
2019-05-06T15:18:31.982Z,42.30
2019-05-06T15:21:24.749Z,42.90
2019-05-06T15:23:28.966Z,40.90
2019-05-06T15:25:56.950Z,41.30
2019-05-06T15:28:24.949Z,41.60
2019-05-06T15:31:03.145Z,41.10
2019-05-06T15:33:33.265Z,41.60
2019-05-06T15:36:03.167Z,41.00
2019-05-06T15:38:31.651Z,40.80
2019-05-06T15:40:59.968Z,40.60
2019-05-06T15:43:28.068Z,39.90
2019-05-06T15:45:56.112Z,40.40
2019-05-06T15:48:24.121Z,40.30
2019-05-06T15:50:53.328Z,40.20
2019-05-06T15:53:22.445Z,39.80
2019-05-06T15:55:50.647Z,41.00
2019-05-06T15:58:18.934Z,42.00
2019-05-06T16:00:46.993Z,40.80
2019-05-06T16:03:15.033Z,41.30
2019-05-06T16:05:43.685Z,40.40
2019-05-06T16:08:11.930Z,40.60
2019-05-06T16:10:51.771Z,41.00
2019-05-06T16:13:09.694Z,40.50
2019-05-06T16:15:37.722Z,41.30
2019-05-06T16:18:05.749Z,40.30
2019-05-06T16:20:33.818Z,40.70
2019-05-06T16:23:03.495Z,40.70
2019-05-06T16:25:31.545Z,39.30
2019-05-06T16:27:59.624Z,39.90
2019-05-06T16:30:27.694Z,40.30
2019-05-06T16:32:55.838Z,41.20
2019-05-06T16:35:23.962Z,40.80
2019-05-06T16:37:52.045Z,40.40
2019-05-06T16:40:22.762Z,40.60
2019-05-06T16:42:54.370Z,40.40
2019-05-06T16:45:23.246Z,40.50
2019-05-06T16:47:52.424Z,41.60
2019-05-06T16:50:22.576Z,41.20
2019-05-06T16:52:52.696Z,41.60
2019-05-06T16:55:24.265Z,41.30
2019-05-06T16:58:03.277Z,42.00
2019-05-06T17:00:33.720Z,42.00
2019-05-06T17:03:15.168Z,41.60
2019-05-06T17:05:44.821Z,41.80
2019-05-06T17:08:12.855Z,42.30
2019-05-06T17:10:43.101Z,42.40
2019-05-06T17:13:12.507Z,43.30
2019-05-06T17:15:40.469Z,43.00
2019-05-06T17:18:08.639Z,43.50
2019-05-06T17:20:37.131Z,42.50
2019-05-06T17:23:05.614Z,41.60
2019-05-06T17:25:33.990Z,41.80
2019-05-06T17:28:03.886Z,41.90
2019-05-06T17:30:43.046Z,43.10
2019-05-06T17:33:29.476Z,42.30
2019-05-06T17:35:57.965Z,42.20
2019-05-06T17:38:44.722Z,43.40
2019-05-06T17:41:12.817Z,43.00
2019-05-06T17:43:43.835Z,42.80
2019-05-06T17:46:12.834Z,43.90
2019-05-06T17:48:48.929Z,43.90
2019-05-06T17:51:18.670Z,44.20
2019-05-06T17:53:54.546Z,43.40
2019-05-06T17:56:22.636Z,43.60
2019-05-06T17:58:52.959Z,44.00
2019-05-06T18:01:32.655Z,43.90
2019-05-06T18:04:02.214Z,43.70
2019-05-06T18:06:33.035Z,44.30
2019-05-06T18:09:02.561Z,44.10
2019-05-06T18:11:33.238Z,44.70
2019-05-06T18:14:03.789Z,45.40
2019-05-06T18:16:33.578Z,45.00
2019-05-06T18:19:03.156Z,45.00
2019-05-06T18:21:31.552Z,45.20
2019-05-06T18:23:59.600Z,46.60
2019-05-06T18:26:27.660Z,46.60
2019-05-06T18:28:58.360Z,46.30
2019-05-06T18:31:25.828Z,47.80
2019-05-06T18:33:57.363Z,48.00
2019-05-06T18:36:29.004Z,48.10
2019-05-06T18:38:57.386Z,48.40
2019-05-06T18:41:37.074Z,48.50
2019-05-06T18:44:24.121Z,47.60
2019-05-06T18:46:54.977Z,48.00
2019-05-06T18:49:25.887Z,47.50
2019-05-06T18:52:07.093Z,48.00
2019-05-06T18:54:37.397Z,49.20
2019-05-06T18:57:07.938Z,49.40
2019-05-06T18:59:38.719Z,49.30
2019-05-06T19:02:07.938Z,49.70
2019-05-06T19:04:44.817Z,50.80
2019-05-06T19:07:17.052Z,50.60
2019-05-06T19:09:48.910Z,51.00
2019-05-06T19:12:34.501Z,51.60
2019-05-06T19:15:03.286Z,51.60
2019-05-06T19:17:52.652Z,51.50
2019-05-06T19:20:27.420Z,51.80
2019-05-06T19:23:18.524Z,51.20
2019-05-06T19:26:12.311Z,49.90
2019-05-06T19:28:44.663Z,50.10
2019-05-06T19:31:14.524Z,49.90
2019-05-06T19:33:45.089Z,50.30
2019-05-06T19:36:20.379Z,50.50
2019-05-06T19:38:55.806Z,51.70
2019-05-06T19:41:30.020Z,54.60
2019-05-06T19:44:01.947Z,53.70
2019-05-06T19:46:32.697Z,54.80
2019-05-06T19:51:55.620Z,55.10
2019-05-06T19:54:24.071Z,53.80
2019-05-06T19:56:52.724Z,53.50
2019-05-06T19:59:20.962Z,53.90
2019-05-06T20:01:49.159Z,53.60
2019-05-06T20:04:18.618Z,54.10
2019-05-06T20:06:55.066Z,54.10
2019-05-06T20:09:33.316Z,53.50
2019-05-06T20:12:03.212Z,53.80
2019-05-06T20:14:31.375Z,55.40
2019-05-06T20:16:59.554Z,56.40
2019-05-06T20:19:31.042Z,57.40
2019-05-06T20:22:02.035Z,58.70
2019-05-06T20:24:33.291Z,59.10
2019-05-06T20:27:02.352Z,59.40
2019-05-06T20:29:32.982Z,59.40
2019-05-06T20:32:20.055Z,59.40
2019-05-06T20:34:50.114Z,58.40
2019-05-06T20:37:17.935Z,58.40
2019-05-06T20:39:45.949Z,58.60
2019-05-06T20:42:15.693Z,58.80
2019-05-06T20:44:43.762Z,59.70
2019-05-06T20:47:13.052Z,60.70
2019-05-06T20:49:43.156Z,61.80
2019-05-06T20:52:12.226Z,61.00
2019-05-06T20:54:42.483Z,60.80
2019-05-06T20:57:12.320Z,60.20
2019-05-06T20:59:42.460Z,60.50
2019-05-06T21:02:12.421Z,60.90
2019-05-06T21:04:43.159Z,60.90
2019-05-06T21:07:12.348Z,62.40
2019-05-06T21:09:42.982Z,63.30
2019-05-06T21:12:10.257Z,63.20
2019-05-06T21:14:38.245Z,63.90
2019-05-06T21:17:06.253Z,63.50
2019-05-06T21:19:34.260Z,64.10
2019-05-06T21:22:02.425Z,65.10
2019-05-06T21:24:32.543Z,64.20
2019-05-06T21:27:02.560Z,63.80
2019-05-06T21:29:29.920Z,64.80
2019-05-06T21:31:57.905Z,63.80
2019-05-06T21:34:25.955Z,64.30
2019-05-06T21:36:53.996Z,64.20
2019-05-06T21:39:22.491Z,62.90
2019-05-06T21:41:52.177Z,61.30
2019-05-06T21:44:22.627Z,61.60
2019-05-06T21:46:50.066Z,62.40
2019-05-06T21:49:18.104Z,63.20
2019-05-06T21:51:46.099Z,64.80
2019-05-06T21:54:14.082Z,64.60
2019-05-06T21:56:42.562Z,65.60
2019-05-06T21:59:12.713Z,65.50
2019-05-06T22:01:42.747Z,64.80
2019-05-06T22:04:12.554Z,63.90
2019-05-06T22:06:42.751Z,63.60
2019-05-06T22:09:11.376Z,63.20
2019-05-06T22:11:39.409Z,64.40
2019-05-06T22:14:07.437Z,63.00
2019-05-06T22:16:35.433Z,62.60
2019-05-06T22:19:03.616Z,63.90
2019-05-06T22:21:32.190Z,63.50
2019-05-06T22:24:04.220Z,62.80
2019-05-06T22:26:32.512Z,62.40
2019-05-06T22:29:02.072Z,61.60
2019-05-06T22:31:30.352Z,60.60
2019-05-06T22:33:58.396Z,60.30
2019-05-06T22:36:26.566Z,61.10
2019-05-06T22:38:54.549Z,61.30
2019-05-06T22:41:24.864Z,63.30
2019-05-06T22:43:53.187Z,64.10
2019-05-06T22:46:23.479Z,64.80
2019-05-06T22:48:54.079Z,64.60
2019-05-06T22:51:22.382Z,65.10
2019-05-06T22:53:50.448Z,65.20
2019-05-06T22:56:18.445Z,65.00
2019-05-06T22:58:46.479Z,65.10
